createdAt,value
2023-05-12T00:01:14.265Z,14.95
2023-05-12T00:03:41.046Z,14.92
2023-05-12T00:06:07.825Z,14.92
2023-05-12T00:08:34.203Z,14.92
2023-05-12T00:11:01.422Z,14.92
2023-05-12T00:13:29.018Z,14.90
2023-05-12T00:15:58.563Z,14.92
2023-05-12T00:18:26.204Z,14.88
2023-05-12T00:20:54.394Z,14.85
2023-05-12T00:23:22.485Z,14.85
2023-05-12T00:25:49.324Z,14.85
2023-05-12T00:28:17.532Z,14.83
2023-05-12T00:30:43.928Z,14.83
2023-05-12T00:33:10.403Z,14.82
2023-05-12T00:35:36.808Z,14.84
2023-05-12T00:38:03.591Z,14.80
2023-05-12T00:40:29.928Z,14.81
2023-05-12T00:42:56.350Z,14.81
2023-05-12T00:45:23.713Z,14.78
2023-05-12T00:47:52.227Z,14.76
2023-05-12T00:50:19.063Z,14.73
2023-05-12T00:52:46.811Z,14.71
2023-05-12T00:55:13.276Z,14.71
2023-05-12T00:57:41.252Z,14.68
2023-05-12T01:00:08.724Z,14.63
2023-05-12T01:02:36.357Z,14.62
2023-05-12T01:05:03.840Z,14.57
2023-05-12T01:07:32.900Z,14.65
2023-05-12T01:09:59.647Z,14.67
2023-05-12T01:12:27.266Z,14.62
2023-05-12T01:14:55.708Z,14.40
2023-05-12T01:17:33.421Z,14.39
2023-05-12T01:20:05.935Z,14.44
2023-05-12T01:22:33.685Z,14.49
2023-05-12T01:25:03.701Z,14.55
2023-05-12T01:27:31.456Z,14.56
2023-05-12T01:30:00.380Z,14.62
2023-05-12T01:32:27.022Z,14.62
2023-05-12T01:34:53.584Z,14.65
2023-05-12T01:37:20.021Z,14.68
2023-05-12T01:39:46.524Z,14.77
2023-05-12T01:42:13.115Z,14.83
2023-05-12T01:44:39.474Z,14.81
2023-05-12T01:47:09.850Z,14.79
2023-05-12T01:49:36.279Z,14.80
2023-05-12T01:52:02.911Z,14.74
2023-05-12T01:54:29.604Z,14.74
2023-05-12T01:56:55.984Z,14.77
2023-05-12T01:59:22.386Z,14.75
2023-05-12T02:01:48.944Z,14.61
2023-05-12T02:04:15.392Z,14.62
2023-05-12T02:06:41.840Z,14.52
2023-05-12T02:09:08.261Z,14.51
2023-05-12T02:11:34.588Z,14.44
2023-05-12T02:14:00.920Z,14.48
2023-05-12T02:16:27.367Z,14.56
2023-05-12T02:18:53.789Z,14.46
2023-05-12T02:21:20.210Z,14.42
2023-05-12T02:23:46.812Z,14.47
2023-05-12T02:26:13.252Z,14.55
2023-05-12T02:28:40.908Z,14.59
2023-05-12T02:31:07.365Z,14.57
2023-05-12T02:33:33.722Z,14.60
2023-05-12T02:36:00.164Z,14.54
2023-05-12T02:38:27.367Z,14.55
2023-05-12T02:40:53.674Z,14.58
2023-05-12T02:43:20.000Z,14.42
2023-05-12T02:45:49.021Z,14.43
2023-05-12T02:48:15.463Z,14.36
2023-05-12T02:50:41.873Z,14.32
2023-05-12T02:53:08.287Z,14.31
2023-05-12T02:55:34.713Z,14.27
2023-05-12T02:58:01.606Z,14.21
2023-05-12T03:00:28.067Z,14.23
2023-05-12T03:02:54.511Z,14.29
2023-05-12T03:05:20.981Z,14.34
2023-05-12T03:07:50.145Z,14.34
2023-05-12T03:10:18.230Z,14.41
2023-05-12T03:12:44.828Z,14.42
2023-05-12T03:15:11.454Z,14.47
2023-05-12T03:17:37.996Z,14.44
2023-05-12T03:20:05.142Z,14.47
2023-05-12T03:22:31.636Z,14.47
2023-05-12T03:24:58.262Z,14.49
2023-05-12T03:27:24.768Z,14.49
2023-05-12T03:29:51.872Z,14.50
2023-05-12T03:32:18.332Z,14.45
2023-05-12T03:34:44.752Z,14.51
2023-05-12T03:37:11.103Z,14.51
2023-05-12T03:39:37.434Z,14.55
2023-05-12T03:42:03.991Z,14.54
2023-05-12T03:44:30.444Z,14.48
2023-05-12T03:46:56.886Z,14.50
2023-05-12T03:49:23.318Z,14.51
2023-05-12T03:51:49.927Z,14.42
2023-05-12T03:54:16.304Z,14.45
2023-05-12T03:56:42.685Z,14.46
2023-05-12T03:59:09.318Z,14.44
2023-05-12T04:01:35.674Z,14.41
2023-05-12T04:04:02.092Z,14.43
2023-05-12T04:06:28.846Z,14.44
2023-05-12T04:08:55.204Z,14.32
2023-05-12T04:11:21.532Z,14.39
2023-05-12T04:13:47.950Z,14.33
2023-05-12T04:16:14.373Z,14.26
2023-05-12T04:18:41.033Z,14.33
2023-05-12T04:21:07.417Z,14.34
2023-05-12T04:23:33.816Z,14.25
2023-05-12T04:26:03.765Z,14.32
2023-05-12T04:28:30.111Z,14.32
2023-05-12T04:30:56.586Z,14.30
2023-05-12T04:33:22.945Z,14.21
2023-05-12T04:35:49.264Z,14.05
2023-05-12T04:38:15.780Z,14.15
2023-05-12T04:40:42.327Z,14.21
2023-05-12T04:43:08.705Z,14.19
2023-05-12T04:45:35.281Z,14.19
2023-05-12T04:48:01.639Z,14.16
2023-05-12T04:50:28.039Z,14.18
2023-05-12T04:52:54.449Z,14.18
2023-05-12T04:55:21.129Z,14.14
2023-05-12T04:57:47.711Z,14.10
2023-05-12T05:00:14.965Z,14.03
2023-05-12T05:02:41.508Z,14.04
2023-05-12T05:05:08.375Z,14.06
2023-05-12T05:07:34.836Z,14.11
2023-05-12T05:10:01.311Z,14.11
2023-05-12T05:12:27.670Z,14.11
2023-05-12T05:14:54.200Z,14.12
2023-05-12T05:17:20.701Z,14.04
2023-05-12T05:19:57.867Z,14.07
2023-05-12T05:22:25.537Z,14.09
2023-05-12T05:24:52.076Z,14.05
2023-05-12T05:27:18.735Z,13.97
2023-05-12T05:29:45.165Z,14.05
2023-05-12T05:32:11.605Z,14.08
2023-05-12T05:34:39.416Z,14.09
2023-05-12T05:37:06.018Z,14.04
2023-05-12T05:39:32.468Z,14.05
2023-05-12T05:41:58.785Z,13.99
2023-05-12T05:44:25.463Z,14.04
2023-05-12T05:46:52.163Z,14.05
2023-05-12T05:49:18.912Z,14.11
2023-05-12T05:51:45.352Z,14.05
2023-05-12T05:54:11.963Z,14.12
2023-05-12T05:56:38.410Z,14.12
2023-05-12T05:59:05.203Z,14.20
2023-05-12T06:01:32.426Z,14.11
2023-05-12T06:03:59.023Z,14.18
2023-05-12T06:06:25.427Z,14.31
2023-05-12T06:08:51.801Z,14.23
2023-05-12T06:11:18.275Z,14.38
2023-05-12T06:13:44.678Z,14.50
2023-05-12T06:16:11.089Z,14.52
2023-05-12T06:18:37.882Z,14.45
2023-05-12T06:21:05.530Z,14.48
2023-05-12T06:23:32.534Z,14.61
2023-05-12T06:25:59.167Z,14.63
2023-05-12T06:28:25.652Z,14.75
2023-05-12T06:30:52.023Z,14.79
2023-05-12T06:33:18.440Z,14.76
2023-05-12T06:35:44.862Z,14.77
2023-05-12T06:38:11.213Z,14.91
2023-05-12T06:40:37.525Z,15.04
2023-05-12T06:43:04.106Z,15.12
2023-05-12T06:45:30.690Z,15.20
2023-05-12T06:47:57.681Z,15.15
2023-05-12T06:50:24.159Z,15.18
2023-05-12T06:52:51.067Z,15.17
2023-05-12T06:55:20.501Z,15.25
2023-05-12T06:57:47.615Z,15.35
2023-05-12T07:00:14.569Z,15.46
2023-05-12T07:02:41.240Z,15.36
2023-05-12T07:05:08.107Z,15.53
2023-05-12T07:07:35.862Z,15.69
2023-05-12T07:10:02.188Z,15.58
2023-05-12T07:12:28.622Z,15.64
2023-05-12T07:14:54.978Z,15.62
2023-05-12T07:17:21.630Z,15.56
2023-05-12T07:19:48.151Z,15.49
2023-05-12T07:22:14.686Z,15.51
2023-05-12T07:24:41.564Z,15.50
2023-05-12T07:27:08.250Z,15.52
2023-05-12T07:29:34.922Z,15.56
2023-05-12T07:32:01.464Z,15.40
2023-05-12T07:34:28.015Z,15.50
2023-05-12T07:36:54.351Z,15.51
2023-05-12T07:39:23.579Z,15.41
2023-05-12T07:41:50.928Z,15.42
2023-05-12T07:44:17.317Z,15.43
2023-05-12T07:46:43.852Z,15.48
2023-05-12T07:49:10.346Z,15.39
2023-05-12T07:51:37.027Z,15.48
2023-05-12T07:54:04.674Z,15.48
2023-05-12T07:56:31.055Z,15.52
2023-05-12T07:58:57.472Z,15.56
2023-05-12T08:01:24.164Z,15.60
2023-05-12T08:03:53.643Z,15.59
2023-05-12T08:06:20.034Z,15.61
2023-05-12T08:08:46.403Z,15.55
2023-05-12T08:11:13.509Z,15.59
2023-05-12T08:13:39.888Z,15.70
2023-05-12T08:16:06.328Z,15.70
2023-05-12T08:18:32.731Z,15.71
2023-05-12T08:20:59.166Z,15.70
2023-05-12T08:23:25.620Z,15.64
2023-05-12T08:25:52.065Z,15.73
2023-05-12T08:28:18.552Z,15.84
2023-05-12T08:30:45.465Z,15.79
2023-05-12T08:33:12.600Z,15.81
2023-05-12T08:35:39.789Z,15.90
2023-05-12T08:38:06.600Z,15.92
2023-05-12T08:40:45.103Z,15.99
2023-05-12T08:43:26.224Z,16.03
2023-05-12T08:45:59.338Z,16.15
2023-05-12T08:48:27.920Z,16.28
2023-05-12T08:50:54.841Z,16.33
2023-05-12T08:53:24.982Z,16.40
2023-05-12T08:57:09.533Z,16.38
2023-05-12T08:58:42.109Z,16.38
2023-05-12T09:01:11.572Z,16.36
2023-05-12T09:03:39.009Z,16.44
2023-05-12T09:06:06.683Z,16.56
2023-05-12T09:08:35.244Z,16.65
2023-05-12T09:11:02.421Z,16.77
2023-05-12T09:13:50.754Z,16.85
2023-05-12T09:16:23.551Z,16.81
2023-05-12T09:18:53.226Z,16.95
2023-05-12T09:21:20.740Z,16.92
2023-05-12T09:23:57.392Z,16.93
2023-05-12T09:26:25.400Z,16.99
2023-05-12T09:29:03.601Z,16.97
2023-05-12T09:31:30.031Z,17.01
2023-05-12T09:33:58.209Z,17.07
2023-05-12T09:36:25.549Z,17.14
2023-05-12T09:39:04.699Z,17.17
2023-05-12T09:41:34.686Z,17.18
2023-05-12T09:44:01.261Z,17.20
2023-05-12T09:46:28.196Z,17.20
2023-05-12T09:48:58.598Z,17.30
2023-05-12T09:51:26.634Z,17.46
2023-05-12T09:53:53.048Z,17.60
2023-05-12T09:56:19.683Z,17.68
2023-05-12T09:58:47.727Z,17.80
2023-05-12T10:01:23.295Z,17.96
2023-05-12T10:03:56.292Z,18.12
2023-05-12T10:06:30.018Z,18.18
2023-05-12T10:09:13.605Z,18.26
2023-05-12T10:11:41.105Z,18.09
2023-05-12T10:14:09.706Z,18.27
2023-05-12T10:16:36.576Z,18.47
2023-05-12T10:19:04.486Z,18.50
2023-05-12T10:21:32.049Z,18.72
2023-05-12T10:23:59.230Z,18.78
2023-05-12T10:26:25.948Z,18.87
2023-05-12T10:28:53.335Z,18.91
2023-05-12T10:31:20.547Z,18.91
2023-05-12T10:34:00.408Z,18.89
2023-05-12T10:36:27.253Z,19.08
2023-05-12T10:38:54.741Z,19.16
2023-05-12T10:41:32.074Z,19.22
2023-05-12T10:43:58.745Z,19.01
2023-05-12T10:46:27.067Z,19.05
2023-05-12T10:48:55.091Z,19.15
2023-05-12T10:51:28.263Z,19.05
2023-05-12T10:54:02.474Z,19.38
2023-05-12T10:56:31.416Z,19.52
2023-05-12T10:59:19.206Z,19.61
2023-05-12T11:02:05.793Z,19.68
2023-05-12T11:04:46.642Z,19.76
2023-05-12T11:07:16.494Z,19.66
2023-05-12T11:09:56.514Z,19.60
2023-05-12T11:12:26.696Z,19.71
2023-05-12T11:14:54.166Z,19.70
2023-05-12T11:17:20.609Z,19.70
2023-05-12T11:19:50.383Z,19.82
2023-05-12T11:22:19.790Z,19.84
2023-05-12T11:24:47.089Z,19.92
2023-05-12T11:27:19.075Z,19.94
2023-05-12T11:29:55.337Z,19.98
2023-05-12T11:32:21.708Z,19.97
2023-05-12T11:34:48.564Z,19.98
2023-05-12T11:37:15.107Z,20.06
2023-05-12T11:39:41.781Z,20.14
2023-05-12T11:42:13.535Z,20.16
2023-05-12T11:44:48.413Z,20.22
2023-05-12T11:47:16.042Z,20.32
2023-05-12T11:49:49.167Z,20.35
2023-05-12T11:52:16.269Z,20.47
2023-05-12T11:54:52.790Z,20.44
2023-05-12T11:57:27.471Z,20.40
2023-05-12T12:00:07.932Z,20.40
2023-05-12T12:02:35.869Z,20.38
2023-05-12T12:05:02.435Z,20.41
2023-05-12T12:07:34.132Z,20.39
2023-05-12T12:10:18.651Z,20.33
2023-05-12T12:12:46.048Z,20.28
2023-05-12T12:15:12.992Z,20.30
2023-05-12T12:17:40.342Z,20.26
2023-05-12T12:20:08.308Z,20.20
2023-05-12T12:22:35.154Z,20.10
2023-05-12T12:25:02.452Z,20.09
2023-05-12T12:27:28.866Z,19.99
2023-05-12T12:29:55.260Z,20.12
2023-05-12T12:32:21.637Z,20.22
2023-05-12T12:34:49.124Z,20.32
2023-05-12T12:37:16.064Z,20.35
2023-05-12T12:39:42.668Z,20.35
2023-05-12T12:42:09.464Z,20.29
2023-05-12T12:44:35.958Z,20.32
2023-05-12T12:47:02.427Z,20.31
2023-05-12T12:49:28.891Z,20.44
2023-05-12T12:51:55.695Z,20.41
2023-05-12T12:54:22.172Z,20.57
2023-05-12T12:56:48.494Z,20.59
2023-05-12T12:59:14.935Z,20.62
2023-05-12T13:01:41.476Z,20.74
2023-05-12T13:04:07.796Z,20.86
2023-05-12T13:06:34.703Z,20.84
2023-05-12T13:09:01.669Z,20.85
2023-05-12T13:11:28.165Z,20.84
2023-05-12T13:13:54.557Z,20.97
2023-05-12T13:16:21.088Z,21.05
2023-05-12T13:18:47.492Z,21.04
2023-05-12T13:21:14.041Z,21.10
2023-05-12T13:23:40.468Z,21.08
2023-05-12T13:26:06.763Z,21.03
2023-05-12T13:28:33.284Z,20.99
2023-05-12T13:30:59.680Z,20.94
2023-05-12T13:33:26.116Z,20.88
2023-05-12T13:35:52.474Z,20.86
2023-05-12T13:38:19.765Z,20.83
2023-05-12T13:40:46.300Z,20.79
2023-05-12T13:43:12.907Z,20.89
2023-05-12T13:45:39.410Z,20.84
2023-05-12T13:48:06.081Z,20.84
2023-05-12T13:50:33.693Z,20.85
2023-05-12T13:53:00.483Z,20.76
2023-05-12T13:55:27.396Z,20.69
2023-05-12T13:57:53.919Z,20.66
2023-05-12T14:00:20.508Z,20.71
2023-05-12T14:02:46.916Z,20.70
2023-05-12T14:05:13.378Z,20.67
2023-05-12T14:07:39.873Z,20.60
2023-05-12T14:10:07.105Z,20.56
2023-05-12T14:12:33.577Z,20.53
2023-05-12T14:15:19.341Z,20.50
2023-05-12T14:17:46.503Z,20.46
2023-05-12T14:20:13.009Z,20.50
2023-05-12T14:22:39.446Z,20.54
2023-05-12T14:25:06.362Z,20.48
2023-05-12T14:27:32.773Z,20.40
2023-05-12T14:29:59.169Z,20.43
2023-05-12T14:32:25.583Z,20.41
2023-05-12T14:34:52.129Z,20.38
2023-05-12T14:37:18.489Z,20.40
2023-05-12T14:39:44.935Z,20.41
2023-05-12T14:42:11.465Z,20.38
2023-05-12T14:44:38.006Z,20.33
2023-05-12T14:47:05.505Z,20.34
2023-05-12T14:49:32.911Z,20.31
2023-05-12T14:51:59.248Z,20.32
2023-05-12T14:54:26.183Z,20.28
2023-05-12T14:56:53.062Z,20.26
2023-05-12T14:59:19.556Z,20.23
2023-05-12T15:01:46.077Z,20.28
2023-05-12T15:04:13.229Z,20.29
2023-05-12T15:06:39.817Z,20.31
2023-05-12T15:09:06.800Z,20.31
2023-05-12T15:11:33.281Z,20.30
2023-05-12T15:13:59.603Z,20.33
2023-05-12T15:16:27.875Z,20.30
2023-05-12T15:18:55.400Z,20.30
2023-05-12T15:21:22.238Z,20.23
2023-05-12T15:23:49.321Z,20.26
2023-05-12T15:26:31.346Z,20.34
2023-05-12T15:28:59.796Z,20.41
2023-05-12T15:31:28.824Z,20.45
2023-05-12T15:33:56.552Z,20.39
2023-05-12T15:36:23.149Z,20.37
2023-05-12T15:38:49.523Z,20.39
2023-05-12T15:41:15.962Z,20.40
2023-05-12T15:43:42.472Z,20.42
2023-05-12T15:46:10.743Z,20.42
2023-05-12T15:48:37.611Z,20.40
2023-05-12T15:51:04.420Z,20.44
2023-05-12T15:53:31.291Z,20.46
2023-05-12T15:56:01.927Z,20.36
2023-05-12T15:58:28.581Z,20.42
2023-05-12T16:00:55.758Z,20.31
2023-05-12T16:03:22.945Z,20.31
2023-05-12T16:05:49.791Z,20.33
2023-05-12T16:08:16.231Z,20.31
2023-05-12T16:10:42.575Z,20.27
2023-05-12T16:13:08.949Z,20.28
2023-05-12T16:15:35.847Z,20.24
2023-05-12T16:18:02.458Z,20.28
2023-05-12T16:20:29.745Z,20.32
2023-05-12T16:22:56.239Z,20.32
2023-05-12T16:25:23.058Z,20.32
2023-05-12T16:27:50.048Z,20.30
2023-05-12T16:30:19.775Z,20.24
2023-05-12T16:32:47.233Z,20.17
2023-05-12T16:35:13.955Z,20.18
2023-05-12T16:37:40.388Z,20.17
2023-05-12T16:40:07.625Z,20.09
2023-05-12T16:42:34.008Z,20.08
2023-05-12T16:45:00.426Z,19.99
2023-05-12T16:47:26.887Z,19.97
2023-05-12T16:49:53.515Z,20.06
2023-05-12T16:52:20.306Z,20.12
2023-05-12T16:54:47.036Z,20.15
2023-05-12T16:57:13.399Z,20.11
2023-05-12T16:59:39.826Z,20.09
2023-05-12T17:02:06.847Z,20.09
2023-05-12T17:04:33.241Z,20.04
2023-05-12T17:06:59.784Z,19.98
2023-05-12T17:09:26.153Z,19.87
2023-05-12T17:11:52.540Z,19.80
2023-05-12T17:14:19.557Z,19.60
2023-05-12T17:16:46.575Z,19.40
2023-05-12T17:19:14.562Z,19.00
2023-05-12T17:21:42.440Z,18.41
2023-05-12T17:24:08.918Z,17.95
2023-05-12T17:26:35.689Z,17.74
2023-05-12T17:29:02.348Z,17.62
2023-05-12T17:31:28.838Z,17.41
2023-05-12T17:33:55.425Z,17.38
2023-05-12T17:36:22.028Z,17.44
2023-05-12T17:38:50.567Z,17.63
2023-05-12T17:41:17.041Z,17.57
2023-05-12T17:43:43.525Z,17.45
2023-05-12T17:46:10.263Z,17.31
2023-05-12T17:48:38.247Z,17.40
2023-05-12T17:51:04.870Z,17.31
2023-05-12T17:53:31.981Z,17.25
2023-05-12T17:55:59.407Z,17.25
2023-05-12T17:58:26.241Z,17.32
2023-05-12T18:00:53.072Z,17.36
2023-05-12T18:03:23.966Z,17.33
2023-05-12T18:05:52.576Z,17.23
2023-05-12T18:08:19.067Z,17.28
2023-05-12T18:10:46.682Z,17.33
2023-05-12T18:13:14.488Z,17.32
2023-05-12T18:15:41.639Z,17.31
2023-05-12T18:18:08.725Z,17.32
2023-05-12T18:20:35.252Z,17.29
2023-05-12T18:23:01.664Z,17.33
2023-05-12T18:25:28.083Z,17.34
2023-05-12T18:27:54.462Z,17.24
2023-05-12T18:30:21.089Z,17.26
2023-05-12T18:32:47.953Z,17.25
2023-05-12T18:35:14.359Z,17.24
2023-05-12T18:37:40.695Z,17.13
2023-05-12T18:40:07.755Z,17.13
2023-05-12T18:42:34.845Z,17.13
2023-05-12T18:45:01.321Z,17.20
2023-05-12T18:47:27.702Z,17.13
2023-05-12T18:49:54.152Z,17.14
2023-05-12T18:52:21.195Z,17.17
2023-05-12T18:54:49.589Z,17.09
2023-05-12T18:57:16.499Z,17.05
2023-05-12T18:59:42.978Z,17.01
2023-05-12T19:02:09.588Z,17.01
2023-05-12T19:04:36.026Z,16.98
2023-05-12T19:07:02.351Z,17.01
2023-05-12T19:09:28.733Z,16.99
2023-05-12T19:11:55.094Z,16.96
2023-05-12T19:14:21.517Z,16.93
2023-05-12T19:16:48.372Z,16.97
2023-05-12T19:19:14.932Z,16.91
2023-05-12T19:21:41.329Z,16.90
2023-05-12T19:24:08.478Z,16.85
2023-05-12T19:26:34.893Z,16.77
2023-05-12T19:29:01.953Z,16.80
2023-05-12T19:31:28.625Z,16.79
2023-05-12T19:33:54.970Z,16.76
2023-05-12T19:36:21.390Z,16.71
2023-05-12T19:38:47.913Z,16.68
2023-05-12T19:41:14.296Z,16.63
2023-05-12T19:43:40.686Z,16.66
2023-05-12T19:46:07.505Z,16.59
2023-05-12T19:48:33.906Z,16.53
2023-05-12T19:51:00.361Z,16.56
2023-05-12T19:53:26.894Z,16.50
2023-05-12T19:55:53.659Z,16.40
2023-05-12T19:58:20.038Z,16.36
2023-05-12T20:00:46.511Z,16.35
2023-05-12T20:03:13.037Z,16.38
2023-05-12T20:05:40.989Z,16.33
2023-05-12T20:08:07.402Z,16.35
2023-05-12T20:10:33.804Z,16.40
2023-05-12T20:13:03.341Z,16.39
2023-05-12T20:15:34.218Z,16.38
2023-05-12T20:18:00.874Z,16.32
2023-05-12T20:20:27.235Z,16.24
2023-05-12T20:22:54.576Z,16.30
2023-05-12T20:25:21.074Z,16.32
2023-05-12T20:27:48.264Z,16.37
2023-05-12T20:30:14.743Z,16.30
2023-05-12T20:32:41.228Z,16.25
2023-05-12T20:35:08.126Z,16.18
2023-05-12T20:37:34.579Z,16.12
2023-05-12T20:40:01.247Z,16.12
2023-05-12T20:42:27.666Z,16.08
2023-05-12T20:44:54.368Z,16.10
2023-05-12T20:47:20.739Z,16.02
2023-05-12T20:49:47.190Z,16.03
2023-05-12T20:52:13.668Z,16.04
2023-05-12T20:54:40.015Z,16.00
2023-05-12T20:57:06.334Z,15.99
2023-05-12T20:59:32.805Z,15.95
2023-05-12T21:01:59.285Z,15.94
2023-05-12T21:04:25.911Z,15.93
2023-05-12T21:06:53.799Z,15.92
2023-05-12T21:09:20.317Z,15.90
2023-05-12T21:11:47.115Z,15.84
2023-05-12T21:14:13.588Z,15.73
2023-05-12T21:16:40.015Z,15.71
2023-05-12T21:19:06.620Z,15.65
2023-05-12T21:21:33.121Z,15.60
2023-05-12T21:23:59.468Z,15.57
2023-05-12T21:26:26.855Z,15.66
2023-05-12T21:28:53.194Z,15.59
2023-05-12T21:31:19.519Z,15.59
2023-05-12T21:33:45.991Z,15.63
2023-05-12T21:36:12.388Z,15.58
2023-05-12T21:38:38.750Z,15.54
2023-05-12T21:41:05.426Z,15.55
2023-05-12T21:43:31.834Z,15.51
2023-05-12T21:46:02.375Z,15.48
2023-05-12T21:48:28.934Z,15.42
2023-05-12T21:50:59.851Z,15.43
2023-05-12T21:53:26.424Z,15.41
2023-05-12T21:55:53.126Z,15.35
2023-05-12T21:58:19.631Z,15.28
2023-05-12T22:00:45.999Z,15.29
2023-05-12T22:03:12.573Z,15.36
2023-05-12T22:05:39.047Z,15.38
2023-05-12T22:08:06.286Z,15.38
2023-05-12T22:10:32.811Z,15.32
2023-05-12T22:12:59.187Z,15.34
2023-05-12T22:15:25.540Z,15.31
2023-05-12T22:17:52.206Z,15.26
2023-05-12T22:20:19.036Z,15.24
2023-05-12T22:22:45.606Z,15.26
2023-05-12T22:25:12.011Z,15.29
2023-05-12T22:27:38.436Z,15.24
2023-05-12T22:30:05.336Z,15.29
2023-05-12T22:32:31.886Z,15.25
2023-05-12T22:34:58.385Z,15.23
2023-05-12T22:37:25.058Z,15.20
2023-05-12T22:39:51.448Z,15.24
2023-05-12T22:42:17.775Z,15.23
2023-05-12T22:44:44.530Z,15.19
2023-05-12T22:47:11.145Z,15.17
2023-05-12T22:49:37.766Z,15.14
2023-05-12T22:52:05.545Z,15.15
2023-05-12T22:54:31.946Z,15.15
2023-05-12T22:56:58.308Z,15.07
2023-05-12T22:59:24.677Z,15.02
2023-05-12T23:01:51.659Z,15.02
2023-05-12T23:04:18.183Z,15.13
2023-05-12T23:06:44.550Z,15.11
2023-05-12T23:09:10.936Z,15.12
2023-05-12T23:11:37.275Z,15.01
2023-05-12T23:14:03.668Z,14.88
2023-05-12T23:16:30.241Z,14.86
2023-05-12T23:18:56.646Z,14.92
2023-05-12T23:21:23.076Z,14.97
2023-05-12T23:23:49.584Z,14.97
2023-05-12T23:26:15.962Z,14.85
2023-05-12T23:28:42.336Z,14.79
2023-05-12T23:31:08.756Z,14.73
2023-05-12T23:33:35.500Z,14.79
2023-05-12T23:36:01.997Z,14.74
2023-05-12T23:38:28.400Z,14.68
2023-05-12T23:40:54.847Z,14.75
2023-05-12T23:43:21.168Z,14.74
2023-05-12T23:45:47.797Z,14.76
2023-05-12T23:48:14.164Z,14.77
2023-05-12T23:50:40.582Z,14.75
2023-05-12T23:53:07.033Z,14.79
2023-05-12T23:55:33.451Z,14.75
2023-05-12T23:57:59.932Z,14.72
